sensor_id;sensor_type;location;lat;lon;timestamp;P1;durP1;ratioP1;P2;durP2;ratioP2
19919;SDS011;10122;50.074;19.920;2022-07-23T00:00:05;18.70;;;15.52;;
19919;SDS011;10122;50.074;19.920;2022-07-23T00:02:32;16.52;;;14.85;;
19919;SDS011;10122;50.074;19.920;2022-07-23T00:04:58;18.27;;;15.55;;
19919;SDS011;10122;50.074;19.920;2022-07-23T00:07:23;17.67;;;15.27;;
19919;SDS011;10122;50.074;19.920;2022-07-23T00:09:49;18.80;;;15.52;;
19919;SDS011;10122;50.074;19.920;2022-07-23T00:12:14;17.73;;;15.60;;
19919;SDS011;10122;50.074;19.920;2022-07-23T00:14:40;18.58;;;15.82;;
19919;SDS011;10122;50.074;19.920;2022-07-23T00:17:06;20.02;;;15.32;;
19919;SDS011;10122;50.074;19.920;2022-07-23T00:19:31;17.20;;;15.20;;
19919;SDS011;10122;50.074;19.920;2022-07-23T00:21:57;17.42;;;15.27;;
19919;SDS011;10122;50.074;19.920;2022-07-23T00:24:23;17.48;;;14.93;;
19919;SDS011;10122;50.074;19.920;2022-07-23T00:26:48;18.00;;;15.02;;
19919;SDS011;10122;50.074;19.920;2022-07-23T00:29:14;18.90;;;14.68;;
19919;SDS011;10122;50.074;19.920;2022-07-23T00:31:40;20.35;;;15.60;;
19919;SDS011;10122;50.074;19.920;2022-07-23T00:34:06;17.52;;;15.15;;
19919;SDS011;10122;50.074;19.920;2022-07-23T00:36:32;18.80;;;14.48;;
19919;SDS011;10122;50.074;19.920;2022-07-23T00:38:57;17.25;;;14.23;;
19919;SDS011;10122;50.074;19.920;2022-07-23T00:41:23;15.70;;;14.05;;
19919;SDS011;10122;50.074;19.920;2022-07-23T00:43:49;17.48;;;13.65;;
19919;SDS011;10122;50.074;19.920;2022-07-23T00:46:21;17.23;;;13.90;;
19919;SDS011;10122;50.074;19.920;2022-07-23T00:48:47;18.38;;;13.95;;
19919;SDS011;10122;50.074;19.920;2022-07-23T00:51:16;20.10;;;14.13;;
19919;SDS011;10122;50.074;19.920;2022-07-23T00:53:43;17.40;;;13.82;;
19919;SDS011;10122;50.074;19.920;2022-07-23T00:56:10;17.58;;;13.95;;
19919;SDS011;10122;50.074;19.920;2022-07-23T00:58:36;17.50;;;13.73;;
19919;SDS011;10122;50.074;19.920;2022-07-23T01:01:02;16.60;;;14.18;;
19919;SDS011;10122;50.074;19.920;2022-07-23T01:03:28;15.20;;;13.48;;
19919;SDS011;10122;50.074;19.920;2022-07-23T01:05:55;18.35;;;13.93;;
19919;SDS011;10122;50.074;19.920;2022-07-23T01:08:20;15.20;;;13.63;;
19919;SDS011;10122;50.074;19.920;2022-07-23T01:10:46;18.05;;;13.82;;
19919;SDS011;10122;50.074;19.920;2022-07-23T01:13:13;17.15;;;14.57;;
19919;SDS011;10122;50.074;19.920;2022-07-23T01:15:39;16.23;;;14.20;;
19919;SDS011;10122;50.074;19.920;2022-07-23T01:18:05;15.00;;;13.38;;
19919;SDS011;10122;50.074;19.920;2022-07-23T01:20:32;18.35;;;14.20;;
19919;SDS011;10122;50.074;19.920;2022-07-23T01:22:58;17.02;;;14.52;;
19919;SDS011;10122;50.074;19.920;2022-07-23T01:25:24;17.00;;;14.60;;
19919;SDS011;10122;50.074;19.920;2022-07-23T01:27:53;17.13;;;14.48;;
19919;SDS011;10122;50.074;19.920;2022-07-23T01:30:19;16.38;;;14.52;;
19919;SDS011;10122;50.074;19.920;2022-07-23T01:32:45;17.77;;;15.40;;
19919;SDS011;10122;50.074;19.920;2022-07-23T01:35:11;18.23;;;15.25;;
19919;SDS011;10122;50.074;19.920;2022-07-23T01:37:37;18.67;;;15.25;;
19919;SDS011;10122;50.074;19.920;2022-07-23T01:40:03;19.10;;;15.10;;
19919;SDS011;10122;50.074;19.920;2022-07-23T01:42:30;17.98;;;15.15;;
19919;SDS011;10122;50.074;19.920;2022-07-23T01:44:56;17.83;;;15.20;;
19919;SDS011;10122;50.074;19.920;2022-07-23T01:47:22;18.95;;;16.02;;
19919;SDS011;10122;50.074;19.920;2022-07-23T01:49:48;18.63;;;15.25;;
19919;SDS011;10122;50.074;19.920;2022-07-23T01:52:13;17.90;;;15.45;;
19919;SDS011;10122;50.074;19.920;2022-07-23T01:54:39;16.98;;;14.85;;
19919;SDS011;10122;50.074;19.920;2022-07-23T01:57:06;23.15;;;15.63;;
19919;SDS011;10122;50.074;19.920;2022-07-23T01:59:32;17.42;;;15.18;;
19919;SDS011;10122;50.074;19.920;2022-07-23T02:01:58;18.85;;;15.52;;
19919;SDS011;10122;50.074;19.920;2022-07-23T02:04:24;19.80;;;15.18;;
19919;SDS011;10122;50.074;19.920;2022-07-23T02:06:51;18.98;;;15.38;;
19919;SDS011;10122;50.074;19.920;2022-07-23T02:09:17;17.45;;;14.82;;
19919;SDS011;10122;50.074;19.920;2022-07-23T02:11:43;18.80;;;15.63;;
19919;SDS011;10122;50.074;19.920;2022-07-23T02:14:10;23.02;;;16.02;;
19919;SDS011;10122;50.074;19.920;2022-07-23T02:16:36;19.38;;;15.70;;
19919;SDS011;10122;50.074;19.920;2022-07-23T02:19:02;18.20;;;15.98;;
19919;SDS011;10122;50.074;19.920;2022-07-23T02:21:28;19.98;;;15.88;;
19919;SDS011;10122;50.074;19.920;2022-07-23T02:23:54;18.20;;;15.38;;
19919;SDS011;10122;50.074;19.920;2022-07-23T02:26:19;18.55;;;15.65;;
19919;SDS011;10122;50.074;19.920;2022-07-23T02:28:45;20.05;;;16.08;;
19919;SDS011;10122;50.074;19.920;2022-07-23T02:31:11;19.83;;;15.45;;
19919;SDS011;10122;50.074;19.920;2022-07-23T02:33:36;19.25;;;15.75;;
19919;SDS011;10122;50.074;19.920;2022-07-23T02:36:02;21.45;;;15.93;;
19919;SDS011;10122;50.074;19.920;2022-07-23T02:38:28;18.85;;;16.08;;
19919;SDS011;10122;50.074;19.920;2022-07-23T02:40:53;18.88;;;15.57;;
19919;SDS011;10122;50.074;19.920;2022-07-23T02:43:19;18.85;;;15.30;;
19919;SDS011;10122;50.074;19.920;2022-07-23T02:45:45;18.75;;;15.98;;
19919;SDS011;10122;50.074;19.920;2022-07-23T02:48:10;19.45;;;15.73;;
19919;SDS011;10122;50.074;19.920;2022-07-23T02:50:39;21.42;;;15.70;;
19919;SDS011;10122;50.074;19.920;2022-07-23T02:53:05;19.08;;;15.52;;
19919;SDS011;10122;50.074;19.920;2022-07-23T02:55:30;17.75;;;15.27;;
19919;SDS011;10122;50.074;19.920;2022-07-23T02:57:56;17.73;;;15.18;;
19919;SDS011;10122;50.074;19.920;2022-07-23T03:00:22;19.48;;;15.15;;
19919;SDS011;10122;50.074;19.920;2022-07-23T03:02:48;17.90;;;14.50;;
19919;SDS011;10122;50.074;19.920;2022-07-23T03:05:13;16.13;;;14.43;;
19919;SDS011;10122;50.074;19.920;2022-07-23T03:07:39;19.08;;;14.98;;
19919;SDS011;10122;50.074;19.920;2022-07-23T03:10:05;16.13;;;13.95;;
19919;SDS011;10122;50.074;19.920;2022-07-23T03:12:31;18.73;;;14.63;;
19919;SDS011;10122;50.074;19.920;2022-07-23T03:14:56;15.80;;;14.07;;
19919;SDS011;10122;50.074;19.920;2022-07-23T03:17:22;16.98;;;14.77;;
19919;SDS011;10122;50.074;19.920;2022-07-23T03:19:48;18.30;;;14.40;;
19919;SDS011;10122;50.074;19.920;2022-07-23T03:22:14;16.00;;;14.27;;
19919;SDS011;10122;50.074;19.920;2022-07-23T03:24:40;16.55;;;14.75;;
19919;SDS011;10122;50.074;19.920;2022-07-23T03:27:24;20.13;;;15.15;;
19919;SDS011;10122;50.074;19.920;2022-07-23T03:29:51;20.55;;;14.73;;
19919;SDS011;10122;50.074;19.920;2022-07-23T03:32:18;16.00;;;14.27;;
19919;SDS011;10122;50.074;19.920;2022-07-23T03:34:45;16.80;;;14.52;;
19919;SDS011;10122;50.074;19.920;2022-07-23T03:37:10;19.10;;;15.15;;
19919;SDS011;10122;50.074;19.920;2022-07-23T03:39:36;17.50;;;15.10;;
19919;SDS011;10122;50.074;19.920;2022-07-23T03:42:02;20.80;;;15.35;;
19919;SDS011;10122;50.074;19.920;2022-07-23T03:44:27;18.80;;;15.23;;
19919;SDS011;10122;50.074;19.920;2022-07-23T03:46:53;16.55;;;14.63;;
19919;SDS011;10122;50.074;19.920;2022-07-23T03:49:19;18.33;;;15.07;;
19919;SDS011;10122;50.074;19.920;2022-07-23T03:51:45;19.02;;;15.48;;
19919;SDS011;10122;50.074;19.920;2022-07-23T03:54:10;19.58;;;15.20;;
19919;SDS011;10122;50.074;19.920;2022-07-23T03:56:36;22.55;;;15.25;;
19919;SDS011;10122;50.074;19.920;2022-07-23T03:59:02;17.95;;;15.25;;
19919;SDS011;10122;50.074;19.920;2022-07-23T04:01:27;18.35;;;14.38;;
19919;SDS011;10122;50.074;19.920;2022-07-23T04:03:53;21.02;;;17.92;;
19919;SDS011;10122;50.074;19.920;2022-07-23T04:06:19;22.42;;;20.00;;
19919;SDS011;10122;50.074;19.920;2022-07-23T04:08:45;26.33;;;20.85;;
19919;SDS011;10122;50.074;19.920;2022-07-23T04:11:10;22.95;;;19.58;;
19919;SDS011;10122;50.074;19.920;2022-07-23T04:13:36;23.25;;;18.85;;
19919;SDS011;10122;50.074;19.920;2022-07-23T04:16:02;21.58;;;17.75;;
19919;SDS011;10122;50.074;19.920;2022-07-23T04:18:28;22.20;;;17.88;;
19919;SDS011;10122;50.074;19.920;2022-07-23T04:20:54;20.65;;;16.52;;
19919;SDS011;10122;50.074;19.920;2022-07-23T04:23:20;20.25;;;16.35;;
19919;SDS011;10122;50.074;19.920;2022-07-23T04:25:46;19.80;;;16.15;;
19919;SDS011;10122;50.074;19.920;2022-07-23T04:28:12;20.08;;;16.83;;
19919;SDS011;10122;50.074;19.920;2022-07-23T04:30:37;18.30;;;16.30;;
19919;SDS011;10122;50.074;19.920;2022-07-23T04:33:03;20.70;;;17.23;;
19919;SDS011;10122;50.074;19.920;2022-07-23T04:35:35;19.30;;;15.98;;
19919;SDS011;10122;50.074;19.920;2022-07-23T04:38:01;18.17;;;15.60;;
19919;SDS011;10122;50.074;19.920;2022-07-23T04:40:27;20.58;;;16.17;;
19919;SDS011;10122;50.074;19.920;2022-07-23T04:42:53;20.48;;;15.68;;
19919;SDS011;10122;50.074;19.920;2022-07-23T04:45:19;21.70;;;16.35;;
19919;SDS011;10122;50.074;19.920;2022-07-23T04:47:45;19.13;;;15.75;;
19919;SDS011;10122;50.074;19.920;2022-07-23T04:50:12;19.08;;;16.00;;
19919;SDS011;10122;50.074;19.920;2022-07-23T04:52:37;18.45;;;14.85;;
19919;SDS011;10122;50.074;19.920;2022-07-23T04:55:03;17.60;;;14.75;;
19919;SDS011;10122;50.074;19.920;2022-07-23T04:57:29;17.38;;;14.77;;
19919;SDS011;10122;50.074;19.920;2022-07-23T04:59:55;16.20;;;14.20;;
19919;SDS011;10122;50.074;19.920;2022-07-23T05:02:21;19.25;;;13.93;;
19919;SDS011;10122;50.074;19.920;2022-07-23T05:04:46;19.25;;;13.65;;
19919;SDS011;10122;50.074;19.920;2022-07-23T05:07:12;16.63;;;13.15;;
19919;SDS011;10122;50.074;19.920;2022-07-23T05:09:38;16.42;;;13.25;;
19919;SDS011;10122;50.074;19.920;2022-07-23T05:12:04;16.73;;;13.40;;
19919;SDS011;10122;50.074;19.920;2022-07-23T05:14:29;15.23;;;12.93;;
19919;SDS011;10122;50.074;19.920;2022-07-23T05:16:55;17.42;;;13.70;;
19919;SDS011;10122;50.074;19.920;2022-07-23T05:19:21;16.15;;;13.38;;
19919;SDS011;10122;50.074;19.920;2022-07-23T05:21:47;14.73;;;13.13;;
19919;SDS011;10122;50.074;19.920;2022-07-23T05:24:12;15.15;;;12.88;;
19919;SDS011;10122;50.074;19.920;2022-07-23T05:26:38;15.15;;;12.50;;
19919;SDS011;10122;50.074;19.920;2022-07-23T05:29:03;16.42;;;13.25;;
19919;SDS011;10122;50.074;19.920;2022-07-23T05:31:29;15.32;;;12.65;;
19919;SDS011;10122;50.074;19.920;2022-07-23T05:33:55;14.70;;;12.50;;
19919;SDS011;10122;50.074;19.920;2022-07-23T05:36:20;16.02;;;13.02;;
19919;SDS011;10122;50.074;19.920;2022-07-23T05:38:46;15.95;;;12.60;;
19919;SDS011;10122;50.074;19.920;2022-07-23T05:41:11;16.25;;;12.82;;
19919;SDS011;10122;50.074;19.920;2022-07-23T05:43:37;14.48;;;12.00;;
19919;SDS011;10122;50.074;19.920;2022-07-23T05:46:03;13.70;;;12.10;;
19919;SDS011;10122;50.074;19.920;2022-07-23T05:48:28;15.88;;;12.52;;
19919;SDS011;10122;50.074;19.920;2022-07-23T05:50:54;17.05;;;12.55;;
19919;SDS011;10122;50.074;19.920;2022-07-23T05:53:20;15.18;;;12.18;;
19919;SDS011;10122;50.074;19.920;2022-07-23T05:55:45;15.60;;;12.57;;
19919;SDS011;10122;50.074;19.920;2022-07-23T05:58:11;14.55;;;12.30;;
19919;SDS011;10122;50.074;19.920;2022-07-23T06:00:37;17.40;;;12.40;;
19919;SDS011;10122;50.074;19.920;2022-07-23T06:03:03;13.75;;;11.60;;
19919;SDS011;10122;50.074;19.920;2022-07-23T06:05:28;14.15;;;12.13;;
19919;SDS011;10122;50.074;19.920;2022-07-23T06:07:54;15.57;;;12.23;;
19919;SDS011;10122;50.074;19.920;2022-07-23T06:10:19;15.32;;;12.25;;
19919;SDS011;10122;50.074;19.920;2022-07-23T06:12:45;15.70;;;12.07;;
19919;SDS011;10122;50.074;19.920;2022-07-23T06:15:11;13.73;;;12.13;;
19919;SDS011;10122;50.074;19.920;2022-07-23T06:17:37;13.88;;;12.25;;
19919;SDS011;10122;50.074;19.920;2022-07-23T06:20:04;14.63;;;12.30;;
19919;SDS011;10122;50.074;19.920;2022-07-23T06:22:34;13.73;;;11.65;;
19919;SDS011;10122;50.074;19.920;2022-07-23T06:25:00;15.32;;;11.57;;
19919;SDS011;10122;50.074;19.920;2022-07-23T06:27:26;14.23;;;12.18;;
19919;SDS011;10122;50.074;19.920;2022-07-23T06:29:52;16.98;;;12.60;;
19919;SDS011;10122;50.074;19.920;2022-07-23T06:32:18;14.32;;;12.15;;
19919;SDS011;10122;50.074;19.920;2022-07-23T06:34:43;14.48;;;12.25;;
19919;SDS011;10122;50.074;19.920;2022-07-23T06:37:09;15.60;;;12.57;;
19919;SDS011;10122;50.074;19.920;2022-07-23T06:39:35;13.88;;;12.35;;
19919;SDS011;10122;50.074;19.920;2022-07-23T06:42:00;15.45;;;12.38;;
19919;SDS011;10122;50.074;19.920;2022-07-23T06:44:26;14.05;;;12.52;;
19919;SDS011;10122;50.074;19.920;2022-07-23T06:46:52;15.02;;;12.50;;
19919;SDS011;10122;50.074;19.920;2022-07-23T06:49:18;14.07;;;12.57;;
19919;SDS011;10122;50.074;19.920;2022-07-23T06:51:44;15.93;;;12.73;;
19919;SDS011;10122;50.074;19.920;2022-07-23T06:54:10;15.15;;;12.88;;
19919;SDS011;10122;50.074;19.920;2022-07-23T06:56:36;14.65;;;13.07;;
19919;SDS011;10122;50.074;19.920;2022-07-23T06:59:01;15.38;;;12.65;;
19919;SDS011;10122;50.074;19.920;2022-07-23T07:01:27;15.60;;;13.52;;
19919;SDS011;10122;50.074;19.920;2022-07-23T07:03:53;15.15;;;12.93;;
19919;SDS011;10122;50.074;19.920;2022-07-23T07:06:18;15.15;;;13.18;;
19919;SDS011;10122;50.074;19.920;2022-07-23T07:08:44;17.13;;;13.05;;
19919;SDS011;10122;50.074;19.920;2022-07-23T07:11:10;15.45;;;12.95;;
19919;SDS011;10122;50.074;19.920;2022-07-23T07:13:36;14.60;;;12.85;;
19919;SDS011;10122;50.074;19.920;2022-07-23T07:16:03;15.02;;;12.85;;
19919;SDS011;10122;50.074;19.920;2022-07-23T07:18:29;15.15;;;12.43;;
19919;SDS011;10122;50.074;19.920;2022-07-23T07:20:56;16.55;;;13.30;;
19919;SDS011;10122;50.074;19.920;2022-07-23T07:23:22;16.40;;;13.65;;
19919;SDS011;10122;50.074;19.920;2022-07-23T07:25:48;14.07;;;12.00;;
19919;SDS011;10122;50.074;19.920;2022-07-23T07:28:13;13.45;;;12.05;;
19919;SDS011;10122;50.074;19.920;2022-07-23T07:30:39;14.18;;;12.68;;
19919;SDS011;10122;50.074;19.920;2022-07-23T07:33:05;13.45;;;12.13;;
19919;SDS011;10122;50.074;19.920;2022-07-23T07:35:30;13.77;;;12.32;;
19919;SDS011;10122;50.074;19.920;2022-07-23T07:37:57;13.88;;;12.32;;
19919;SDS011;10122;50.074;19.920;2022-07-23T07:40:23;14.23;;;12.73;;
19919;SDS011;10122;50.074;19.920;2022-07-23T07:42:50;18.40;;;12.80;;
19919;SDS011;10122;50.074;19.920;2022-07-23T07:45:17;17.20;;;12.50;;
19919;SDS011;10122;50.074;19.920;2022-07-23T07:47:44;14.93;;;12.52;;
19919;SDS011;10122;50.074;19.920;2022-07-23T07:50:10;13.70;;;11.98;;
19919;SDS011;10122;50.074;19.920;2022-07-23T07:52:36;14.18;;;12.13;;
19919;SDS011;10122;50.074;19.920;2022-07-23T07:55:03;14.02;;;12.63;;
19919;SDS011;10122;50.074;19.920;2022-07-23T07:57:29;14.55;;;13.15;;
19919;SDS011;10122;50.074;19.920;2022-07-23T07:59:55;16.30;;;12.45;;
19919;SDS011;10122;50.074;19.920;2022-07-23T08:02:20;14.60;;;12.30;;
19919;SDS011;10122;50.074;19.920;2022-07-23T08:04:46;14.10;;;12.63;;
19919;SDS011;10122;50.074;19.920;2022-07-23T08:07:15;13.63;;;12.10;;
19919;SDS011;10122;50.074;19.920;2022-07-23T08:09:40;15.77;;;12.10;;
19919;SDS011;10122;50.074;19.920;2022-07-23T08:12:06;13.52;;;12.13;;
19919;SDS011;10122;50.074;19.920;2022-07-23T08:14:32;14.65;;;12.45;;
19919;SDS011;10122;50.074;19.920;2022-07-23T08:16:58;14.63;;;11.82;;
19919;SDS011;10122;50.074;19.920;2022-07-23T08:19:24;13.55;;;12.13;;
19919;SDS011;10122;50.074;19.920;2022-07-23T08:21:50;13.05;;;11.75;;
19919;SDS011;10122;50.074;19.920;2022-07-23T08:24:16;13.75;;;12.13;;
19919;SDS011;10122;50.074;19.920;2022-07-23T08:26:41;12.43;;;11.18;;
19919;SDS011;10122;50.074;19.920;2022-07-23T08:29:07;12.18;;;10.98;;
19919;SDS011;10122;50.074;19.920;2022-07-23T08:31:32;12.95;;;11.65;;
19919;SDS011;10122;50.074;19.920;2022-07-23T08:33:59;11.98;;;10.77;;
19919;SDS011;10122;50.074;19.920;2022-07-23T08:36:25;12.35;;;11.05;;
19919;SDS011;10122;50.074;19.920;2022-07-23T08:38:52;12.75;;;11.27;;
19919;SDS011;10122;50.074;19.920;2022-07-23T08:41:19;11.48;;;10.27;;
19919;SDS011;10122;50.074;19.920;2022-07-23T08:43:55;12.07;;;10.65;;
19919;SDS011;10122;50.074;19.920;2022-07-23T08:46:21;11.98;;;10.80;;
19919;SDS011;10122;50.074;19.920;2022-07-23T08:48:50;11.73;;;10.63;;
19919;SDS011;10122;50.074;19.920;2022-07-23T08:51:16;11.80;;;10.65;;
19919;SDS011;10122;50.074;19.920;2022-07-23T08:53:42;14.23;;;11.07;;
19919;SDS011;10122;50.074;19.920;2022-07-23T08:56:09;14.90;;;11.50;;
19919;SDS011;10122;50.074;19.920;2022-07-23T08:58:35;12.25;;;11.05;;
19919;SDS011;10122;50.074;19.920;2022-07-23T09:01:01;16.25;;;11.68;;
19919;SDS011;10122;50.074;19.920;2022-07-23T09:03:29;12.27;;;10.65;;
19919;SDS011;10122;50.074;19.920;2022-07-23T09:05:59;12.00;;;10.80;;
19919;SDS011;10122;50.074;19.920;2022-07-23T09:08:39;11.98;;;10.70;;
19919;SDS011;10122;50.074;19.920;2022-07-23T09:11:08;11.48;;;10.35;;
19919;SDS011;10122;50.074;19.920;2022-07-23T09:13:36;11.05;;;9.98;;
19919;SDS011;10122;50.074;19.920;2022-07-23T09:16:28;11.25;;;10.00;;
19919;SDS011;10122;50.074;19.920;2022-07-23T09:19:00;13.10;;;10.93;;
19919;SDS011;10122;50.074;19.920;2022-07-23T09:21:30;15.32;;;10.60;;
19919;SDS011;10122;50.074;19.920;2022-07-23T09:23:58;12.25;;;11.02;;
19919;SDS011;10122;50.074;19.920;2022-07-23T09:29:17;11.60;;;10.50;;
19919;SDS011;10122;50.074;19.920;2022-07-23T09:31:54;12.00;;;10.77;;
19919;SDS011;10122;50.074;19.920;2022-07-23T09:36:54;10.82;;;9.77;;
19919;SDS011;10122;50.074;19.920;2022-07-23T09:39:25;10.25;;;9.18;;
19919;SDS011;10122;50.074;19.920;2022-07-23T09:41:55;10.80;;;9.25;;
19919;SDS011;10122;50.074;19.920;2022-07-23T09:44:22;9.63;;;8.63;;
19919;SDS011;10122;50.074;19.920;2022-07-23T09:46:48;10.07;;;8.98;;
19919;SDS011;10122;50.074;19.920;2022-07-23T09:49:19;10.32;;;9.40;;
19919;SDS011;10122;50.074;19.920;2022-07-23T09:54:22;10.75;;;9.48;;
19919;SDS011;10122;50.074;19.920;2022-07-23T09:56:49;9.82;;;8.82;;
19919;SDS011;10122;50.074;19.920;2022-07-23T09:59:16;10.30;;;9.30;;
19919;SDS011;10122;50.074;19.920;2022-07-23T10:01:44;10.38;;;9.38;;
19919;SDS011;10122;50.074;19.920;2022-07-23T10:04:11;10.07;;;9.18;;
19919;SDS011;10122;50.074;19.920;2022-07-23T10:06:39;11.15;;;10.00;;
19919;SDS011;10122;50.074;19.920;2022-07-23T10:09:05;11.43;;;9.95;;
19919;SDS011;10122;50.074;19.920;2022-07-23T10:11:33;10.25;;;9.25;;
19919;SDS011;10122;50.074;19.920;2022-07-23T10:13:59;11.25;;;8.98;;
19919;SDS011;10122;50.074;19.920;2022-07-23T10:16:28;10.45;;;9.10;;
19919;SDS011;10122;50.074;19.920;2022-07-23T10:18:54;10.15;;;9.15;;
19919;SDS011;10122;50.074;19.920;2022-07-23T10:21:34;11.05;;;9.40;;
19919;SDS011;10122;50.074;19.920;2022-07-23T10:37:52;9.80;;;8.80;;
19919;SDS011;10122;50.074;19.920;2022-07-23T10:40:36;10.88;;;8.63;;
19919;SDS011;10122;50.074;19.920;2022-07-23T10:43:01;10.18;;;9.27;;
19919;SDS011;10122;50.074;19.920;2022-07-23T10:45:40;9.60;;;8.60;;
19919;SDS011;10122;50.074;19.920;2022-07-23T10:48:24;10.15;;;9.25;;
19919;SDS011;10122;50.074;19.920;2022-07-23T10:59:23;9.05;;;8.05;;
19919;SDS011;10122;50.074;19.920;2022-07-23T11:01:49;9.52;;;8.45;;
19919;SDS011;10122;50.074;19.920;2022-07-23T11:04:14;8.80;;;7.88;;
19919;SDS011;10122;50.074;19.920;2022-07-23T11:09:27;8.65;;;7.80;;
19919;SDS011;10122;50.074;19.920;2022-07-23T11:17:37;9.30;;;8.30;;
19919;SDS011;10122;50.074;19.920;2022-07-23T11:20:16;9.68;;;8.68;;
19919;SDS011;10122;50.074;19.920;2022-07-23T11:25:14;9.15;;;8.25;;
19919;SDS011;10122;50.074;19.920;2022-07-23T11:28:09;9.27;;;8.38;;
19919;SDS011;10122;50.074;19.920;2022-07-23T11:30:45;9.77;;;8.75;;
19919;SDS011;10122;50.074;19.920;2022-07-23T11:35:37;9.63;;;8.48;;
19919;SDS011;10122;50.074;19.920;2022-07-23T11:38:14;10.75;;;8.25;;
19919;SDS011;10122;50.074;19.920;2022-07-23T11:40:43;8.95;;;8.15;;
19919;SDS011;10122;50.074;19.920;2022-07-23T11:43:10;8.88;;;8.07;;
19919;SDS011;10122;50.074;19.920;2022-07-23T11:45:46;10.23;;;8.18;;
19919;SDS011;10122;50.074;19.920;2022-07-23T11:48:24;8.70;;;7.90;;
19919;SDS011;10122;50.074;19.920;2022-07-23T11:50:55;8.50;;;7.70;;
19919;SDS011;10122;50.074;19.920;2022-07-23T11:53:29;10.85;;;8.40;;
19919;SDS011;10122;50.074;19.920;2022-07-23T11:56:29;10.52;;;7.78;;
19919;SDS011;10122;50.074;19.920;2022-07-23T11:58:54;8.52;;;7.82;;
19919;SDS011;10122;50.074;19.920;2022-07-23T12:01:22;8.98;;;8.07;;
19919;SDS011;10122;50.074;19.920;2022-07-23T12:03:51;9.05;;;8.20;;
19919;SDS011;10122;50.074;19.920;2022-07-23T12:06:16;10.60;;;8.07;;
19919;SDS011;10122;50.074;19.920;2022-07-23T12:08:43;8.98;;;7.85;;
19919;SDS011;10122;50.074;19.920;2022-07-23T12:11:08;8.93;;;8.02;;
19919;SDS011;10122;50.074;19.920;2022-07-23T12:13:37;9.85;;;8.85;;
19919;SDS011;10122;50.074;19.920;2022-07-23T12:16:03;8.93;;;8.13;;
19919;SDS011;10122;50.074;19.920;2022-07-23T12:18:30;9.23;;;8.18;;
19919;SDS011;10122;50.074;19.920;2022-07-23T12:20:56;9.48;;;8.30;;
19919;SDS011;10122;50.074;19.920;2022-07-23T12:23:27;8.90;;;8.10;;
19919;SDS011;10122;50.074;19.920;2022-07-23T12:25:53;9.48;;;8.57;;
19919;SDS011;10122;50.074;19.920;2022-07-23T12:28:20;9.13;;;8.23;;
19919;SDS011;10122;50.074;19.920;2022-07-23T12:30:48;9.50;;;8.60;;
19919;SDS011;10122;50.074;19.920;2022-07-23T12:33:37;9.68;;;8.70;;
19919;SDS011;10122;50.074;19.920;2022-07-23T12:36:05;9.35;;;7.75;;
19919;SDS011;10122;50.074;19.920;2022-07-23T12:38:40;9.48;;;8.45;;
19919;SDS011;10122;50.074;19.920;2022-07-23T12:41:16;8.15;;;7.32;;
19919;SDS011;10122;50.074;19.920;2022-07-23T12:43:42;8.50;;;7.70;;
19919;SDS011;10122;50.074;19.920;2022-07-23T12:46:10;8.32;;;7.40;;
19919;SDS011;10122;50.074;19.920;2022-07-23T12:51:27;8.20;;;7.40;;
19919;SDS011;10122;50.074;19.920;2022-07-23T12:54:06;8.68;;;7.88;;
19919;SDS011;10122;50.074;19.920;2022-07-23T12:56:35;9.00;;;8.20;;
19919;SDS011;10122;50.074;19.920;2022-07-23T13:02:14;10.05;;;7.57;;
19919;SDS011;10122;50.074;19.920;2022-07-23T13:04:24;8.27;;;7.57;;
19919;SDS011;10122;50.074;19.920;2022-07-23T13:06:54;9.48;;;8.57;;
19919;SDS011;10122;50.074;19.920;2022-07-23T13:09:29;9.32;;;8.48;;
19919;SDS011;10122;50.074;19.920;2022-07-23T13:11:56;9.55;;;8.65;;
19919;SDS011;10122;50.074;19.920;2022-07-23T13:14:23;9.32;;;8.35;;
19919;SDS011;10122;50.074;19.920;2022-07-23T13:16:50;9.40;;;8.60;;
19919;SDS011;10122;50.074;19.920;2022-07-23T13:19:17;9.70;;;8.80;;
19919;SDS011;10122;50.074;19.920;2022-07-23T13:21:44;9.30;;;8.38;;
19919;SDS011;10122;50.074;19.920;2022-07-23T13:24:10;9.23;;;8.32;;
19919;SDS011;10122;50.074;19.920;2022-07-23T13:26:37;9.30;;;8.40;;
19919;SDS011;10122;50.074;19.920;2022-07-23T13:29:04;9.57;;;8.68;;
19919;SDS011;10122;50.074;19.920;2022-07-23T13:31:30;10.15;;;8.60;;
19919;SDS011;10122;50.074;19.920;2022-07-23T13:33:56;9.93;;;9.00;;
19919;SDS011;10122;50.074;19.920;2022-07-23T13:36:21;9.88;;;8.90;;
19919;SDS011;10122;50.074;19.920;2022-07-23T13:38:47;9.80;;;8.90;;
19919;SDS011;10122;50.074;19.920;2022-07-23T13:41:13;10.98;;;9.00;;
19919;SDS011;10122;50.074;19.920;2022-07-23T13:43:57;10.40;;;9.40;;
19919;SDS011;10122;50.074;19.920;2022-07-23T13:46:23;9.93;;;9.02;;
19919;SDS011;10122;50.074;19.920;2022-07-23T13:48:49;10.43;;;9.48;;
19919;SDS011;10122;50.074;19.920;2022-07-23T13:51:14;15.73;;;12.13;;
19919;SDS011;10122;50.074;19.920;2022-07-23T13:53:41;10.63;;;9.52;;
19919;SDS011;10122;50.074;19.920;2022-07-23T13:56:06;10.00;;;9.00;;
19919;SDS011;10122;50.074;19.920;2022-07-23T13:58:32;10.38;;;9.15;;
19919;SDS011;10122;50.074;19.920;2022-07-23T14:00:57;19.60;;;11.40;;
19919;SDS011;10122;50.074;19.920;2022-07-23T14:03:23;34.40;;;15.82;;
19919;SDS011;10122;50.074;19.920;2022-07-23T14:05:49;46.45;;;17.98;;
19919;SDS011;10122;50.074;19.920;2022-07-23T14:08:16;42.25;;;17.42;;
19919;SDS011;10122;50.074;19.920;2022-07-23T14:10:41;23.08;;;13.50;;
19919;SDS011;10122;50.074;19.920;2022-07-23T14:13:07;24.20;;;13.73;;
19919;SDS011;10122;50.074;19.920;2022-07-23T14:15:33;18.25;;;11.52;;
19919;SDS011;10122;50.074;19.920;2022-07-23T14:17:59;10.98;;;5.95;;
19919;SDS011;10122;50.074;19.920;2022-07-23T14:20:25;12.65;;;10.00;;
19919;SDS011;10122;50.074;19.920;2022-07-23T14:22:51;15.52;;;9.25;;
19919;SDS011;10122;50.074;19.920;2022-07-23T14:25:18;11.15;;;9.35;;
19919;SDS011;10122;50.074;19.920;2022-07-23T14:27:44;13.77;;;9.80;;
19919;SDS011;10122;50.074;19.920;2022-07-23T14:30:10;10.57;;;9.50;;
19919;SDS011;10122;50.074;19.920;2022-07-23T14:32:37;12.85;;;9.80;;
19919;SDS011;10122;50.074;19.920;2022-07-23T14:35:03;11.30;;;9.27;;
19919;SDS011;10122;50.074;19.920;2022-07-23T14:37:29;11.63;;;9.15;;
19919;SDS011;10122;50.074;19.920;2022-07-23T14:39:55;12.45;;;9.75;;
19919;SDS011;10122;50.074;19.920;2022-07-23T14:42:20;10.57;;;9.52;;
19919;SDS011;10122;50.074;19.920;2022-07-23T14:44:46;11.38;;;9.27;;
19919;SDS011;10122;50.074;19.920;2022-07-23T14:47:12;11.90;;;9.48;;
19919;SDS011;10122;50.074;19.920;2022-07-23T14:49:38;10.18;;;9.07;;
19919;SDS011;10122;50.074;19.920;2022-07-23T14:52:04;10.38;;;9.27;;
19919;SDS011;10122;50.074;19.920;2022-07-23T14:54:30;11.73;;;9.65;;
19919;SDS011;10122;50.074;19.920;2022-07-23T14:56:57;10.82;;;9.70;;
19919;SDS011;10122;50.074;19.920;2022-07-23T14:59:23;12.13;;;9.07;;
19919;SDS011;10122;50.074;19.920;2022-07-23T15:01:49;10.90;;;9.27;;